Airfield :
LOGIN :

Register | Disclaimer

   EN    FR    IT 

 










Legend :    VFR   Marginal VFR   IFR   Intensive IFR   Very Intensive IFR
Visi :
Ceiling :
>= 8 km
>= 3000ft
5 to 8 km
1000 to 3000 ft
1500m to 5 km
500 to 1000 ft
800 to 1500m
200 to 500 ft
< 800m
< 200 ft
Symbols :   Thunderstorms  Fog  Heavy snow  Heavy precipitations  Wind > 20 kt
SIGMETs :     Misc.  Thunderstorms  Icing  Turbulence  Mountain Waves  Volcanic Ashes







- Airport Elevation : 359 ft
- IATA code : BVA
- Download approach charts


LFOB - Beauvais

CURRENT METAR :
  • 231430Z AUTO 29010KT 270V340 9999 BKN044 BKN064 22/12 Q1023 NOSIG

EXPIRED METARs :
  • 231400Z AUTO 31008KT 270V340 9999 FEW040 22/12 Q1023 NOSIG
  • 231330Z AUTO 30009KT 9000 NSC 22/12 Q1023 NOSIG
  • 231300Z AUTO 28009KT 260V320 CAVOK 22/12 Q1022 NOSIG
  • 231230Z AUTO 30008KT 260V340 9000 NSC 21/13 Q1022 NOSIG
  • 231200Z AUTO 32009KT 280V350 9000 NSC 21/13 Q1022 NOSIG

TAF TAF LFOB
Valid from the 23 at 12:00 until the 24 at 12:00 UTC


231100Z 2312/2412 29010KT 9999 SCT030
BECMG 2318/2320 35005KT
BECMG 2402/2405 1500 BR OVC002
BECMG 2408/2410 9999 NSW SCT030
ATIS : +33 3 44 11 49 28
No reported NOTAMs for that airfield.



MET'MAP, your aeronautical weather chart ! - Copyright ORBIFLY December 2007 - Disclaimer

ORBIFLY MET'MAP TEAM :

Programming & Development : Alexandra Zaïnal
Concept & Development : Baudouin d'Aumeries
Co-Development & Prog : Marc-Olivier Méhu
Technical & hardware support : Manuel Goepfert

Contact : metmap@orbifly.com




SOURCES & CREDITS :

   NOAA